Time;durP1;ratioP1;P1;durP2;ratioP2;P2;SDS_P1;SDS_P2;PMS_P1;PMS_P2;Temp;Humidity;BMP_temperature;BMP_pressure;BME280_temperature;BME280_humidity;BME280_pressure;Samples;Min_cycle;Max_cycle;Signal;HPM_P1;HPM_P2
2022/06/25 00:01:47;;;;;;;11.10;3.40;;;;;;;16.64;69.08;99422.44;10434895;28;20106;-80
2022/06/25 00:06:49;;;;;;;9.88;3.50;;;;;;;16.59;68.84;99421.22;10416854;28;20742;-80
2022/06/25 00:17:11;;;;;;;10.52;2.95;;;;;;;16.61;68.39;99435.91;10442032;28;20548;-80
2022/06/25 00:22:13;;;;;;;422.58;10.15;;;;;;;16.51;68.61;99448.31;10423494;28;20130;-80
2022/06/25 00:27:15;;;;;;;797.22;23.00;;;;;;;16.42;69.04;99457.06;10424974;28;20073;-80
2022/06/25 00:32:17;;;;;;;256.67;8.57;;;;;;;16.42;69.01;99464.97;10423102;28;20473;-80
2022/06/25 00:37:19;;;;;;;30.63;4.75;;;;;;;16.41;68.43;99465.06;10442677;28;20080;-80
2022/06/25 00:42:20;;;;;;;348.40;13.18;;;;;;;16.28;68.33;99470.66;10424421;28;20052;-81
2022/06/25 00:47:23;;;;;;;104.15;5.95;;;;;;;15.99;68.69;99468.00;10422929;28;20048;-80
2022/06/25 00:52:27;;;;;;;8.32;2.60;;;;;;;16.00;69.21;99479.38;10423448;28;21083;-80
2022/06/25 00:57:29;;;;;;;4.53;2.85;;;;;;;16.10;68.83;99482.88;10422342;28;20084;-80
2022/06/25 01:02:31;;;;;;;176.55;6.97;;;;;;;16.18;68.71;99489.09;10441322;28;20053;-80
2022/06/25 01:07:38;;;;;;;250.23;10.10;;;;;;;16.14;68.54;99486.91;10423172;28;20041;-80
2022/06/25 01:12:40;;;;;;;580.22;19.30;;;;;;;16.04;68.82;99488.69;10438232;28;20155;-80
2022/06/25 01:17:47;;;;;;;698.35;20.77;;;;;;;16.08;68.88;99493.53;10422278;28;20057;-80
2022/06/25 01:22:49;;;;;;;906.08;27.83;;;;;;;16.06;69.09;99492.84;10438887;28;20114;-80
2022/06/25 01:27:50;;;;;;;759.40;23.75;;;;;;;16.01;68.91;99495.06;10422821;28;20072;-80
2022/06/25 01:32:52;;;;;;;232.23;8.82;;;;;;;15.95;69.07;99503.53;10421441;28;20560;-80
2022/06/25 01:37:54;;;;;;;438.15;11.18;;;;;;;15.94;69.74;99504.50;10437817;28;20561;-80
2022/06/25 01:42:59;;;;;;;628.28;17.08;;;;;;;16.06;69.22;99500.75;10421486;28;20132;-80
2022/06/25 01:48:03;;;;;;;588.00;17.17;;;;;;;16.13;69.33;99509.81;10419930;28;20103;-80
2022/06/25 01:53:05;;;;;;;577.58;17.80;;;;;;;16.13;69.16;99501.06;10420388;28;20084;-80
2022/06/25 01:58:07;;;;;;;379.35;10.43;;;;;;;16.14;69.33;99514.09;10419000;28;20734;-80
2022/06/25 02:03:09;;;;;;;483.88;12.88;;;;;;;16.06;69.34;99513.94;10423219;28;20145;-80
2022/06/25 02:08:13;;;;;;;129.80;4.95;;;;;;;16.10;69.62;99519.81;10443660;28;20049;-80
2022/06/25 02:13:16;;;;;;;478.70;11.32;;;;;;;16.03;69.33;99516.88;10424571;28;20110;-80
2022/06/25 02:18:18;;;;;;;697.42;18.13;;;;;;;15.99;69.34;99515.47;10443970;28;20049;-80
2022/06/25 02:23:21;;;;;;;758.67;18.55;;;;;;;15.87;69.05;99521.00;10426522;28;20092;-80
2022/06/25 02:28:22;;;;;;;241.38;6.47;;;;;;;15.80;69.58;99533.88;10425785;28;20061;-80
2022/06/25 02:33:24;;;;;;;289.75;8.32;;;;;;;15.84;69.54;99539.72;10425169;28;20107;-80
2022/06/25 02:38:26;;;;;;;636.08;17.20;;;;;;;15.84;69.08;99543.19;10442770;28;20136;-80
2022/06/25 02:43:28;;;;;;;597.90;13.15;;;;;;;15.77;69.38;99539.44;10423644;28;20059;-80
2022/06/25 02:48:29;;;;;;;474.42;11.10;;;;;;;15.67;69.06;99545.63;10425059;28;20049;-80
2022/06/25 02:53:31;;;;;;;297.10;10.05;;;;;;;15.63;69.72;99555.63;10423797;28;20479;-80
2022/06/25 03:03:54;;;;;;;90.22;3.75;;;;;;;15.76;69.30;99552.72;10440186;28;20080;-80
2022/06/25 03:08:56;;;;;;;98.43;4.25;;;;;;;15.79;69.05;99561.22;10436492;28;20122;-80
2022/06/25 03:13:58;;;;;;;233.23;5.63;;;;;;;15.72;69.10;99556.59;10414993;28;20791;-80
2022/06/25 03:19:01;;;;;;;306.83;7.32;;;;;;;15.65;69.12;99566.88;10418025;28;20094;-80
2022/06/25 03:24:03;;;;;;;98.43;4.35;;;;;;;15.53;69.29;99561.81;10417833;28;20411;-80
2022/06/25 03:29:05;;;;;;;71.38;3.58;;;;;;;15.52;69.33;99563.59;10417451;28;20048;-80
2022/06/25 03:34:07;;;;;;;504.55;13.35;;;;;;;15.44;68.82;99563.41;10417978;28;20110;-80
2022/06/25 03:39:09;;;;;;;425.73;12.20;;;;;;;15.46;68.94;99568.53;10416950;28;20049;-80
2022/06/25 03:44:11;;;;;;;304.95;9.52;;;;;;;15.54;68.87;99569.56;10419196;28;20092;-80
2022/06/25 03:49:13;;;;;;;157.93;5.15;;;;;;;15.67;68.49;99575.47;10442822;28;20053;-80
2022/06/25 03:54:15;;;;;;;102.32;4.57;;;;;;;15.70;68.17;99571.72;10424871;28;20889;-80
2022/06/25 03:59:17;;;;;;;117.70;4.45;;;;;;;15.71;68.39;99558.44;10444472;28;20049;-80
2022/06/25 04:04:19;;;;;;;117.78;5.25;;;;;;;15.80;68.26;99573.44;10425934;28;20056;-80
2022/06/25 04:09:21;;;;;;;280.30;7.25;;;;;;;15.86;68.26;99572.91;10442337;28;20057;-80
2022/06/25 04:14:22;;;;;;;152.77;5.05;;;;;;;15.92;67.51;99574.16;10443484;28;20507;-80
2022/06/25 04:19:24;;;;;;;187.23;5.47;;;;;;;16.07;67.44;99576.31;10424842;28;20561;-80
2022/06/25 04:24:26;;;;;;;308.95;7.85;;;;;;;16.13;67.41;99580.19;10425356;28;20499;-80
2022/06/25 04:29:29;;;;;;;795.78;18.20;;;;;;;16.10;67.15;99581.28;10423705;28;20133;-80
2022/06/25 04:34:31;;;;;;;206.63;6.10;;;;;;;16.16;66.91;99587.84;10440634;28;20564;-80
2022/06/25 04:39:32;;;;;;;525.60;13.57;;;;;;;16.48;66.30;99585.03;10423768;28;20057;-80
2022/06/25 04:44:34;;;;;;;117.50;4.18;;;;;;;16.57;65.88;99600.06;10441609;28;20079;-81
2022/06/25 04:49:36;;;;;;;155.32;4.68;;;;;;;16.82;65.53;99592.41;10423522;28;20053;-80
2022/06/25 04:54:38;;;;;;;251.82;6.97;;;;;;;16.76;65.59;99597.41;10422054;28;20146;-80
2022/06/25 04:59:43;;;;;;;336.10;10.50;;;;;;;16.74;65.11;99596.72;10423653;28;20057;-80
2022/06/25 05:04:44;;;;;;;124.32;4.80;;;;;;;16.85;64.81;99597.41;10440981;28;20714;-80
2022/06/25 05:09:46;;;;;;;628.65;17.83;;;;;;;16.99;63.98;99602.28;10422475;28;20049;-80
2022/06/25 05:14:48;;;;;;;40.88;2.58;;;;;;;17.15;64.02;99606.16;10422977;28;20669;-80
2022/06/25 05:19:50;;;;;;;82.65;3.72;;;;;;;17.30;63.84;99615.31;10422551;28;20182;-80
2022/06/25 05:24:51;;;;;;;236.30;6.70;;;;;;;17.25;63.92;99613.09;10439370;28;20141;-80
2022/06/25 05:29:53;;;;;;;604.13;16.67;;;;;;;17.25;63.76;99620.19;10440002;28;20490;-80
2022/06/25 05:34:57;;;;;;;326.17;10.98;;;;;;;17.12;64.20;99628.41;10439061;28;20122;-81
2022/06/25 05:39:59;;;;;;;508.00;13.35;;;;;;;17.09;63.86;99639.25;10420166;28;20462;-80
2022/06/25 05:45:01;;;;;;;585.03;17.95;;;;;;;17.06;64.35;99646.63;10421732;28;20049;-81
2022/06/25 05:50:03;;;;;;;99.97;5.72;;;;;;;17.37;63.93;99643.72;10420565;28;20141;-81
2022/06/25 05:55:06;;;;;;;79.75;5.80;;;;;;;17.88;63.03;99651.25;10420414;28;20140;-81
2022/06/25 06:00:08;;;;;;;33.65;4.40;;;;;;;18.13;62.78;99650.59;10438545;28;20561;-81
2022/06/25 06:05:10;;;;;;;313.25;9.27;;;;;;;18.50;61.35;99642.63;10419876;28;20340;-80
2022/06/25 06:10:12;;;;;;;152.40;9.57;;;;;;;18.24;61.97;99661.00;10420244;28;20442;-81
2022/06/25 06:15:14;;;;;;;30.50;5.15;;;;;;;18.21;62.87;99671.06;10419680;28;20127;-81
2022/06/25 06:20:15;;;;;;;94.60;7.55;;;;;;;18.24;62.15;99673.44;10437505;28;20884;-81
2022/06/25 06:25:17;;;;;;;11.77;3.90;;;;;;;18.83;61.46;99668.47;10418559;28;20057;-81
2022/06/25 06:30:19;;;;;;;5.88;3.60;;;;;;;19.48;60.81;99677.03;10416386;28;20126;-81
2022/06/25 06:35:21;;;;;;;19.48;4.93;;;;;;;20.14;58.57;99673.66;10389818;28;20103;-81
2022/06/25 06:40:22;;;;;;;8.02;4.30;;;;;;;20.65;57.90;99667.44;10389291;28;20073;-81
2022/06/25 06:45:24;;;;;;;12.48;5.30;;;;;;;20.66;57.32;99668.25;10391085;28;20758;-82
2022/06/25 06:50:26;;;;;;;8.63;3.90;;;;;;;21.34;56.72;99671.53;10394865;28;20091;-82
2022/06/25 06:55:28;;;;;;;7.40;4.20;;;;;;;22.81;53.14;99663.81;10395750;28;20148;-83
2022/06/25 07:00:29;;;;;;;8.75;4.82;;;;;;;23.19;51.35;99658.38;10396013;28;20108;-83
2022/06/25 07:05:31;;;;;;;5.57;4.10;;;;;;;24.77;48.93;99651.72;10394790;28;20560;-84
2022/06/25 07:10:33;;;;;;;10.00;3.85;;;;;;;26.39;45.71;99644.34;10390359;28;20466;-82
2022/06/25 07:15:35;;;;;;;6.82;3.55;;;;;;;27.59;42.94;99642.53;10393007;28;20088;-83
2022/06/25 07:20:36;;;;;;;5.25;3.03;;;;;;;28.09;41.70;99642.72;10391741;28;20084;-82
2022/06/25 07:25:38;;;;;;;5.30;2.83;;;;;;;28.03;40.42;99627.41;10392483;28;20081;-83
2022/06/25 07:30:40;;;;;;;5.72;2.65;;;;;;;28.47;39.24;99626.66;10393016;28;20140;-83
2022/06/25 07:35:42;;;;;;;5.07;2.22;;;;;;;28.24;39.33;99626.28;10390214;28;20085;-82
2022/06/25 07:40:43;;;;;;;5.97;2.20;;;;;;;28.18;39.10;99630.66;10391955;28;20049;-82
2022/06/25 07:45:45;;;;;;;6.72;2.00;;;;;;;28.98;37.18;99627.44;10391337;28;20072;-82
2022/06/25 07:56:07;;;;;;;10.88;2.30;;;;;;;29.69;36.34;99614.44;10392951;28;20061;-83
2022/06/25 08:01:09;;;;;;;5.53;2.20;;;;;;;28.50;36.84;99614.66;10393759;28;20053;-84
2022/06/25 08:06:12;;;;;;;7.35;2.00;;;;;;;26.61;40.50;99619.06;10390241;28;20111;-84
2022/06/25 08:11:14;;;;;;;7.35;1.95;;;;;;;26.91;40.56;99620.41;10383253;28;20064;-84
2022/06/25 08:16:25;;;;;;;4.40;2.20;;;;;;;27.39;37.85;99619.22;10390872;28;20088;-84
2022/06/25 08:21:30;;;;;;;8.13;1.85;;;;;;;27.69;39.45;99618.78;10390617;28;20049;-84
2022/06/25 08:26:34;;;;;;;4.60;1.95;;;;;;;28.01;37.69;99612.53;10390273;28;20057;-84
2022/06/25 08:31:36;;;;;;;6.65;1.85;;;;;;;28.09;37.28;99607.75;10401405;28;20040;-85
2022/06/25 08:36:38;;;;;;;8.05;2.20;;;;;;;27.75;38.89;99607.22;10418127;28;20053;-85
2022/06/25 08:41:41;;;;;;;9.75;2.20;;;;;;;27.23;39.59;99614.25;10421022;28;20077;-84
2022/06/25 08:46:50;;;;;;;8.07;2.30;;;;;;;26.46;40.87;99610.34;10438044;28;20049;-84
2022/06/25 08:52:01;;;;;;;5.18;1.83;;;;;;;27.46;38.34;99613.84;10420068;28;20080;-83
2022/06/25 08:57:04;;;;;;;5.10;1.92;;;;;;;28.60;37.87;99604.25;10420564;28;21090;-84
2022/06/25 09:02:07;;;;;;;4.85;2.00;;;;;;;28.45;38.03;99601.84;10436691;28;20052;-85
2022/06/25 09:07:11;;;;;;;7.50;2.00;;;;;;;28.94;37.60;99598.47;10421138;28;20068;-85
2022/06/25 09:12:15;;;;;;;4.65;1.80;;;;;;;28.43;35.74;99597.69;10419530;28;20118;-86
2022/06/25 09:17:17;;;;;;;4.57;1.70;;;;;;;28.13;36.90;99594.72;10419998;28;20110;-86
2022/06/25 09:22:22;;;;;;;5.50;2.10;;;;;;;29.02;35.25;99590.13;10416030;28;20048;-85
2022/06/25 09:27:58;;;;;;;7.63;2.00;;;;;;;27.70;36.35;99598.94;10420260;28;20146;-85
2022/06/25 09:33:02;;;;;;;5.05;1.88;;;;;;;26.42;38.48;99593.00;10417005;28;20049;-80
2022/06/25 09:38:17;;;;;;;6.35;1.90;;;;;;;26.18;41.14;99585.50;10414311;28;20159;-80
2022/06/25 09:43:21;;;;;;;6.20;2.00;;;;;;;26.43;41.61;99581.22;10414719;28;20076;-80
2022/06/25 09:48:27;;;;;;;11.73;1.83;;;;;;;26.95;40.07;99567.97;10416344;28;20049;-80
2022/06/25 09:53:35;;;;;;;5.57;1.80;;;;;;;26.75;38.23;99571.66;10416501;28;20072;-80
2022/06/25 09:58:41;;;;;;;4.07;1.65;;;;;;;27.26;36.90;99572.75;10417678;28;20103;-80
2022/06/25 10:03:46;;;;;;;4.13;1.60;;;;;;;27.34;36.85;99559.13;10418621;28;20057;-79
2022/06/25 10:08:55;;;;;;;5.10;1.80;;;;;;;27.87;37.25;99551.78;10415520;28;20053;-79
2022/06/25 10:13:57;;;;;;;7.25;1.98;;;;;;;28.18;36.95;99554.53;10432416;28;20893;-79
2022/06/25 10:19:01;;;;;;;6.03;1.77;;;;;;;28.33;36.39;99546.22;10423873;28;20064;-80
2022/06/25 10:24:06;;;;;;;8.77;1.85;;;;;;;28.82;35.97;99544.47;10407846;28;20052;-81
2022/06/25 10:29:29;;;;;;;6.93;1.75;;;;;;;27.69;36.59;99554.28;10416498;28;20065;-80
2022/06/25 10:34:33;;;;;;;7.03;1.70;;;;;;;26.48;39.99;99550.13;10414955;28;20136;-80
2022/06/25 10:39:35;;;;;;;4.95;1.85;;;;;;;26.09;40.54;99547.31;10413339;28;20225;-85
2022/06/25 10:44:43;;;;;;;5.05;2.00;;;;;;;25.69;40.72;99532.84;10417992;28;20053;-86
2022/06/25 10:49:45;;;;;;;8.10;2.00;;;;;;;25.61;41.85;99533.00;10416318;28;20053;-88
2022/06/25 10:54:58;;;;;;;5.80;1.88;;;;;;;25.94;41.12;99543.09;10421191;28;20049;-87
2022/06/25 11:00:05;;;;;;;5.30;1.98;;;;;;;26.77;40.01;99540.91;10433542;28;20049;-86
2022/06/25 11:05:26;;;;;;;4.10;1.90;;;;;;;26.45;38.34;99533.59;10415852;28;20110;-87
2022/06/25 11:10:37;;;;;;;4.03;1.98;;;;;;;26.13;39.19;99534.31;10436908;28;20139;-87
2022/06/25 11:15:44;;;;;;;4.15;1.90;;;;;;;25.89;39.34;99532.97;10416391;28;20467;-87
2022/06/25 11:21:05;;;;;;;4.90;2.00;;;;;;;25.48;38.12;99529.44;10439350;28;20145;-88
2022/06/25 11:31:27;;;;;;;3.95;2.20;;;;;;;25.54;39.98;99534.00;10431821;28;20076;-86
2022/06/25 11:36:33;;;;;;;6.15;2.30;;;;;;;25.31;40.40;99534.25;10434598;28;20124;-88
2022/06/25 11:41:39;;;;;;;5.05;2.28;;;;;;;25.34;41.40;99538.41;10420089;28;20796;-90
2022/06/25 11:46:54;;;;;;;6.40;2.28;;;;;;;25.79;40.37;99529.84;10425153;28;20060;-87
2022/06/25 11:51:56;;;;;;;5.68;2.15;;;;;;;26.30;38.42;99531.06;10435423;28;20060;-87
2022/06/25 11:56:59;;;;;;;5.43;2.17;;;;;;;26.39;38.32;99529.88;10416928;28;20053;-87
2022/06/25 12:02:20;;;;;;;6.13;2.42;;;;;;;26.87;38.26;99521.72;10420228;28;20394;-88
2022/06/25 12:07:33;;;;;;;4.68;2.17;;;;;;;26.79;37.49;99509.34;10444258;28;20076;-88
2022/06/25 12:12:42;;;;;;;6.78;2.47;;;;;;;27.06;36.61;99508.28;10431941;28;20052;-90
2022/06/25 12:17:45;;;;;;;3.60;2.20;;;;;;;27.30;35.52;99499.59;10449560;28;20053;-89
2022/06/25 12:22:52;;;;;;;4.60;2.22;;;;;;;27.11;35.55;99502.28;10423621;28;20502;-88
2022/06/25 12:28:03;;;;;;;4.13;2.40;;;;;;;26.73;36.20;99509.31;10448202;28;20453;-88
2022/06/25 12:33:13;;;;;;;5.25;2.40;;;;;;;26.95;36.03;99503.56;10422604;28;20080;-87
2022/06/25 12:38:16;;;;;;;4.45;2.45;;;;;;;26.80;36.28;99500.25;10443058;28;20087;-89
2022/06/25 12:43:26;;;;;;;4.65;2.08;;;;;;;26.56;35.54;99490.13;10420003;28;20518;-89
2022/06/25 12:48:34;;;;;;;7.32;2.00;;;;;;;26.13;34.94;99492.28;10424338;28;20069;-87
2022/06/25 12:53:37;;;;;;;3.83;2.05;;;;;;;26.12;35.63;99487.13;10422490;28;20053;-87
2022/06/25 12:58:40;;;;;;;5.60;1.90;;;;;;;26.86;36.48;99480.63;10424223;28;20084;-87
2022/06/25 13:03:42;;;;;;;3.83;2.05;;;;;;;26.95;36.05;99474.03;10423913;28;20080;-87
2022/06/25 13:08:44;;;;;;;5.10;2.13;;;;;;;26.98;35.23;99481.66;10424611;28;20256;-87
2022/06/25 13:13:46;;;;;;;4.97;1.70;;;;;;;27.01;34.18;99469.69;10423960;28;20132;-87
2022/06/25 13:18:48;;;;;;;6.28;2.00;;;;;;;27.05;35.37;99460.19;10422548;28;20091;-87
2022/06/25 13:23:50;;;;;;;3.47;1.60;;;;;;;27.19;33.41;99459.97;10438175;28;20150;-87
2022/06/25 13:28:52;;;;;;;5.30;1.60;;;;;;;26.72;33.54;99465.56;10424293;28;20079;-87
2022/06/25 13:33:54;;;;;;;5.60;1.73;;;;;;;26.33;34.19;99465.50;10439712;28;20076;-86
2022/06/25 13:38:55;;;;;;;3.50;1.50;;;;;;;25.99;35.03;99462.94;10437705;28;20084;-87
2022/06/25 13:43:58;;;;;;;4.10;1.90;;;;;;;25.96;36.04;99458.00;10422034;28;20060;-87
2022/06/25 13:48:59;;;;;;;2.80;1.40;;;;;;;26.09;35.19;99452.66;10419504;28;20077;-86
2022/06/25 13:54:02;;;;;;;3.72;1.60;;;;;;;26.50;34.55;99446.16;10417165;28;20056;-87
2022/06/25 13:59:04;;;;;;;5.22;1.60;;;;;;;26.85;34.69;99449.47;10421245;28;20138;-86
2022/06/25 14:04:06;;;;;;;4.07;1.60;;;;;;;26.91;34.33;99435.22;10416888;28;20090;-87
2022/06/25 14:09:12;;;;;;;2.35;1.33;;;;;;;27.33;34.45;99437.44;10444159;28;20088;-87
2022/06/25 14:14:14;;;;;;;1.88;1.20;;;;;;;27.65;32.57;99432.16;10420137;28;20126;-87
2022/06/25 14:19:16;;;;;;;5.35;1.48;;;;;;;27.56;33.85;99431.56;10422890;28;20048;-87
2022/06/25 14:25:20;;;;;;;4.68;1.52;;;;;;;27.63;33.51;99426.97;10421492;28;20084;-87
2022/06/25 14:29:39;;;;;;;3.35;1.40;;;;;;;27.80;31.98;99414.75;10439658;28;20053;-87
2022/06/25 14:34:41;;;;;;;3.08;1.50;;;;;;;28.19;31.48;99416.38;10396191;28;20065;-87
2022/06/25 14:45:04;;;;;;;3.45;1.30;;;;;;;28.49;32.18;99397.75;10396534;28;20057;-87
2022/06/25 14:50:07;;;;;;;2.83;1.35;;;;;;;28.28;32.28;99398.91;10396388;28;20065;-88
2022/06/25 14:55:09;;;;;;;4.38;1.88;;;;;;;28.53;32.73;99397.09;10394758;28;20572;-87
2022/06/25 15:00:11;;;;;;;4.45;1.40;;;;;;;28.83;30.91;99389.16;10398155;28;20085;-89
2022/06/25 15:05:14;;;;;;;2.47;1.30;;;;;;;28.76;31.17;99391.94;10397517;28;20053;-87
2022/06/25 15:10:16;;;;;;;3.00;1.30;;;;;;;28.92;30.92;99385.19;10396168;28;21179;-88
2022/06/25 15:15:18;;;;;;;2.65;1.20;;;;;;;29.38;30.60;99373.91;10395997;28;20577;-88
2022/06/25 15:20:20;;;;;;;4.38;1.20;;;;;;;29.46;30.18;99377.13;10396056;28;20479;-86
2022/06/25 15:25:22;;;;;;;4.88;1.52;;;;;;;29.23;31.10;99370.75;10389714;28;20057;-83
2022/06/25 15:30:23;;;;;;;4.53;1.30;;;;;;;29.01;31.08;99371.19;10391107;28;20107;-83
2022/06/25 15:35:25;;;;;;;3.38;1.30;;;;;;;29.09;31.38;99370.09;10390257;28;20455;-84
2022/06/25 15:40:27;;;;;;;2.45;1.20;;;;;;;29.03;30.66;99371.78;10390852;28;20565;-84
2022/06/25 15:45:30;;;;;;;3.53;1.30;;;;;;;28.05;31.70;99367.25;10391315;28;20084;-84
2022/06/25 15:50:38;;;;;;;2.35;1.40;;;;;;;27.41;32.96;99364.69;10391384;28;20045;-84
2022/06/25 15:55:40;;;;;;;;;;;;;;;26.82;33.90;99369.38;10383642;28;20533;-84
2022/06/25 16:00:42;;;;;;;2.83;1.40;;;;;;;27.20;33.43;99373.03;10389863;28;19957;-84
2022/06/25 16:05:44;;;;;;;3.50;1.40;;;;;;;27.03;33.57;99363.78;10390548;28;20057;-83
2022/06/25 16:10:45;;;;;;;3.85;1.60;;;;;;;27.10;35.30;99358.34;10388840;28;20112;-83
2022/06/25 16:15:47;;;;;;;2.92;1.40;;;;;;;27.48;34.40;99364.66;10391156;28;20057;-84
2022/06/25 16:20:49;;;;;;;3.72;1.50;;;;;;;27.31;34.46;99355.44;10388654;28;20132;-84
2022/06/25 16:25:51;;;;;;;2.45;1.60;;;;;;;27.01;35.31;99351.59;10389991;28;20546;-83
2022/06/25 16:30:53;;;;;;;3.38;1.80;;;;;;;26.72;35.85;99360.94;10389711;28;20045;-83
2022/06/25 16:35:54;;;;;;;3.80;1.75;;;;;;;26.53;35.97;99359.06;10389933;28;20152;-83
2022/06/25 16:40:58;;;;;;;3.97;1.85;;;;;;;26.31;36.19;99353.09;10387810;28;20956;-83
2022/06/25 16:45:59;;;;;;;8.95;4.35;;;;;;;26.16;36.54;99363.19;10389815;28;20049;-83
2022/06/25 16:51:03;;;;;;;4.20;2.45;;;;;;;26.41;36.01;99356.19;10392967;28;20641;-84
2022/06/25 16:56:06;;;;;;;3.28;2.30;;;;;;;26.77;35.78;99354.94;10396863;28;20064;-83
2022/06/25 17:01:11;;;;;;;14.52;12.20;;;;;;;26.98;36.05;99342.09;10398471;28;20087;-83
2022/06/25 17:06:13;;;;;;;9.35;7.05;;;;;;;27.02;35.77;99346.00;10396156;28;20049;-84
2022/06/25 17:11:15;;;;;;;7.43;4.53;;;;;;;27.01;35.26;99344.38;10397152;28;20057;-84
2022/06/25 17:16:17;;;;;;;4.22;2.08;;;;;;;26.77;35.35;99350.41;10395950;28;20518;-85
2022/06/25 17:21:19;;;;;;;5.10;3.10;;;;;;;26.76;35.97;99338.03;10396761;28;20053;-84
2022/06/25 17:26:21;;;;;;;10.15;5.47;;;;;;;26.63;35.34;99327.31;10396377;28;20103;-85
2022/06/25 17:31:23;;;;;;;8.93;2.45;;;;;;;26.58;35.41;99330.63;10398449;28;20084;-84
2022/06/25 17:36:24;;;;;;;5.50;3.35;;;;;;;26.49;35.58;99331.84;10439910;28;20779;-84
2022/06/25 17:41:26;;;;;;;4.57;1.83;;;;;;;26.34;36.56;99327.75;10419499;28;20076;-85
2022/06/25 17:46:28;;;;;;;3.47;1.65;;;;;;;26.38;37.73;99337.84;10420870;28;20420;-84
2022/06/25 17:51:35;;;;;;;6.00;1.50;;;;;;;26.14;37.14;99340.31;10420251;28;20128;-85
2022/06/25 17:56:36;;;;;;;4.25;1.50;;;;;;;25.91;37.24;99343.34;10420271;28;20151;-85
2022/06/25 18:01:38;;;;;;;3.63;1.40;;;;;;;25.70;37.59;99347.03;10417114;28;20453;-84
2022/06/25 18:06:40;;;;;;;5.25;1.77;;;;;;;25.43;38.50;99347.97;10420451;28;20058;-85
2022/06/25 18:11:42;;;;;;;3.72;1.50;;;;;;;25.27;39.32;99339.41;10420083;28;20048;-85
2022/06/25 18:16:44;;;;;;;3.95;1.48;;;;;;;25.02;40.15;99347.13;10436846;28;20049;-85
2022/06/25 18:21:46;;;;;;;3.50;1.95;;;;;;;24.80;41.33;99351.75;10418659;28;20506;-84
2022/06/25 18:26:48;;;;;;;5.15;2.10;;;;;;;24.70;41.49;99347.72;10417656;28;20076;-85
2022/06/25 18:31:50;;;;;;;5.28;2.13;;;;;;;24.63;41.83;99354.91;10419963;28;20088;-85
2022/06/25 18:36:51;;;;;;;4.88;2.03;;;;;;;24.55;43.33;99350.50;10434253;28;20049;-85
2022/06/25 18:41:53;;;;;;;4.95;2.00;;;;;;;24.52;44.11;99358.94;10436122;28;20084;-85
2022/06/25 18:46:55;;;;;;;4.93;2.10;;;;;;;24.48;43.98;99356.84;10417806;28;20103;-86
2022/06/25 18:51:57;;;;;;;5.30;2.00;;;;;;;24.18;44.81;99357.00;10434970;28;20169;-86
2022/06/25 18:57:00;;;;;;;5.82;1.83;;;;;;;23.84;45.12;99364.06;10411519;28;20167;-84
2022/06/25 19:02:03;;;;;;;3.38;1.60;;;;;;;23.88;46.24;99368.00;10410837;28;20053;-84
2022/06/25 19:07:16;;;;;;;3.85;1.80;;;;;;;23.84;46.21;99367.53;10413013;28;20091;-83
2022/06/25 19:12:19;;;;;;;4.40;1.70;;;;;;;23.61;45.55;99379.41;10414015;28;20071;-83
2022/06/25 19:17:23;;;;;;;4.53;1.80;;;;;;;23.51;46.63;99387.72;10415175;28;20534;-83
2022/06/25 19:22:25;;;;;;;3.53;1.85;;;;;;;23.40;46.81;99390.81;10415167;28;20049;-83
2022/06/25 19:27:29;;;;;;;4.72;2.00;;;;;;;23.13;47.54;99395.00;10415185;28;20525;-83
2022/06/25 19:32:31;;;;;;;3.92;1.90;;;;;;;22.77;48.38;99398.56;10413489;28;20123;-83
2022/06/25 19:37:39;;;;;;;5.07;2.20;;;;;;;22.53;48.76;99413.75;10413671;28;20418;-81
2022/06/25 19:42:45;;;;;;;5.35;2.10;;;;;;;22.40;48.87;99410.03;10414681;28;20053;-82
2022/06/25 19:47:53;;;;;;;6.80;1.90;;;;;;;22.12;50.60;99408.94;10430488;28;20048;-84
2022/06/25 19:52:58;;;;;;;5.30;1.88;;;;;;;22.11;50.89;99412.63;10416544;28;20053;-85
2022/06/25 19:58:03;;;;;;;7.35;2.03;;;;;;;22.03;51.06;99421.47;10414690;28;20494;-85
2022/06/25 20:03:06;;;;;;;5.03;2.80;;;;;;;21.83;52.62;99415.75;10410924;28;20053;-83
2022/06/25 20:08:09;;;;;;;5.53;2.70;;;;;;;21.51;53.22;99431.91;10415320;28;20110;-83
2022/06/25 20:13:12;;;;;;;4.72;2.67;;;;;;;21.17;54.56;99441.94;10415744;28;20056;-83
2022/06/25 20:18:13;;;;;;;4.82;2.40;;;;;;;21.17;54.49;99435.81;10415639;28;20053;-83
2022/06/25 20:23:15;;;;;;;6.53;2.35;;;;;;;21.18;54.26;99435.63;10434650;28;20063;-83
2022/06/25 20:28:17;;;;;;;4.22;2.53;;;;;;;20.99;54.62;99439.50;10421473;28;20502;-82
2022/06/25 20:33:19;;;;;;;4.97;2.40;;;;;;;20.55;55.74;99432.06;10423421;28;20493;-84
2022/06/25 20:38:22;;;;;;;7.07;2.33;;;;;;;20.59;56.06;99428.94;10419080;28;20052;-84
2022/06/25 20:43:25;;;;;;;4.47;2.20;;;;;;;20.58;55.84;99435.25;10418928;28;20557;-85
2022/06/25 20:48:27;;;;;;;4.45;2.33;;;;;;;20.60;56.21;99440.41;10419857;28;20067;-84
2022/06/25 20:53:29;;;;;;;6.50;2.65;;;;;;;20.51;56.38;99452.81;10441491;28;20057;-84
2022/06/25 20:58:37;;;;;;;3.85;2.17;;;;;;;20.37;56.56;99461.47;10420557;28;20095;-84
2022/06/25 21:09:26;;;;;;;5.28;2.45;;;;;;;20.24;56.46;99451.31;10439730;28;20044;-84
2022/06/25 21:14:28;;;;;;;4.05;2.22;;;;;;;20.23;56.64;99451.50;10421148;28;20529;-84
2022/06/25 21:19:31;;;;;;;4.70;2.33;;;;;;;19.78;57.27;99461.66;10420709;28;20808;-84
2022/06/25 21:24:33;;;;;;;5.25;2.42;;;;;;;19.74;57.86;99468.25;10420940;28;20052;-85
2022/06/25 21:29:53;;;;;;;4.72;2.50;;;;;;;19.76;57.94;99472.44;10438899;28;20491;-84
2022/06/25 21:34:54;;;;;;;6.53;2.28;;;;;;;19.73;57.68;99471.91;10421355;28;20083;-84
2022/06/25 21:39:56;;;;;;;5.10;2.28;;;;;;;19.69;57.70;99468.75;10421969;28;20095;-84
2022/06/25 21:44:58;;;;;;;5.47;2.70;;;;;;;19.43;57.74;99474.13;10421021;28;20052;-85
2022/06/25 21:50:00;;;;;;;5.03;2.25;;;;;;;18.99;58.76;99480.44;10422408;28;20045;-84
2022/06/25 21:55:02;;;;;;;4.03;2.60;;;;;;;18.99;59.01;99477.78;10438843;28;20052;-84
2022/06/25 22:00:13;;;;;;;9.10;2.88;;;;;;;18.86;59.39;99472.09;10420615;28;20045;-84
2022/06/25 22:05:15;;;;;;;5.47;2.40;;;;;;;19.00;59.34;99487.41;10420525;28;20049;-84
2022/06/25 22:10:17;;;;;;;5.63;2.45;;;;;;;18.85;59.10;99488.16;10420820;28;21502;-83
2022/06/25 22:15:19;;;;;;;5.03;2.40;;;;;;;18.88;59.55;99487.81;10427192;28;20061;-84
2022/06/25 22:25:42;;;;;;;;;;;;;;;18.03;60.80;99492.84;10438182;28;20049;-85
2022/06/25 22:30:45;;;;;;;5.03;2.75;;;;;;;18.21;60.69;99496.34;10419678;28;19925;-83
2022/06/25 22:35:47;;;;;;;5.78;2.80;;;;;;;18.41;60.86;99497.88;10418637;28;20068;-84
2022/06/25 22:40:49;;;;;;;7.90;2.70;;;;;;;18.59;60.73;99498.69;10437018;28;20939;-84
2022/06/25 22:45:51;;;;;;;6.43;2.60;;;;;;;18.69;60.41;99502.09;10418420;28;20395;-84
2022/06/25 22:50:53;;;;;;;3.80;2.33;;;;;;;18.79;60.03;99507.31;10436038;28;20609;-83
2022/06/25 22:56:12;;;;;;;6.50;2.30;;;;;;;18.87;59.79;99494.94;10420678;28;20057;-83
2022/06/25 23:01:14;;;;;;;6.13;2.53;;;;;;;19.03;59.20;99499.56;10418886;28;20072;-83
2022/06/25 23:06:16;;;;;;;6.55;2.30;;;;;;;19.12;58.86;99502.09;10440044;28;20053;-84
2022/06/25 23:11:18;;;;;;;4.95;2.40;;;;;;;18.93;59.02;99498.81;10437763;28;20057;-83
2022/06/25 23:16:20;;;;;;;5.90;2.72;;;;;;;18.85;59.42;99515.44;10419309;28;20057;-83
2022/06/25 23:21:22;;;;;;;7.18;2.50;;;;;;;18.77;59.75;99578.97;10436459;28;20134;-83
2022/06/25 23:26:24;;;;;;;5.82;2.28;;;;;;;18.76;59.90;99548.19;10417749;28;20702;-83
2022/06/25 23:31:26;;;;;;;4.00;2.40;;;;;;;19.15;59.11;99562.78;10417962;28;20045;-83
2022/06/25 23:36:28;;;;;;;5.65;2.15;;;;;;;19.27;57.89;99556.22;10416936;28;20107;-83
2022/06/25 23:41:30;;;;;;;3.88;1.88;;;;;;;19.42;57.00;99553.81;10418557;28;20399;-84
2022/06/25 23:46:31;;;;;;;5.15;1.65;;;;;;;19.62;56.45;99562.41;10417804;28;20146;-84
2022/06/25 23:51:33;;;;;;;3.78;2.10;;;;;;;19.79;56.03;99577.38;10428458;28;20399;-84
2022/06/25 23:56:35;;;;;;;7.00;2.00;;;;;;;19.89;55.85;99586.09;10411585;28;20414;-84
